Time;durP1;ratioP1;P1;durP2;ratioP2;P2;SDS_P1;SDS_P2;PMS_P1;PMS_P2;Temp;Humidity;BMP_temperature;BMP_pressure;BME280_temperature;BME280_humidity;BME280_pressure;Samples;Min_cycle;Max_cycle;Signal;HPM_P1;HPM_P2
2022/02/18 00:01:31;;;;;;;18.98;2.72;;;11.70;66.00;;;;;;6176273;28;20501;-79
2022/02/18 00:04:33;;;;;;;24.88;4.43;;;11.70;66.00;;;;;;6176541;28;20493;-81
2022/02/18 00:07:35;;;;;;;9.32;2.58;;;11.70;66.10;;;;;;6177455;28;20049;-80
2022/02/18 00:10:37;;;;;;;17.30;2.15;;;11.70;66.20;;;;;;6184485;28;20050;-81
2022/02/18 00:13:39;;;;;;;16.65;2.78;;;11.70;66.10;;;;;;6177406;28;20057;-80
2022/02/18 00:16:42;;;;;;;18.50;3.17;;;11.70;66.30;;;;;;6177397;28;20501;-80
2022/02/18 00:19:43;;;;;;;17.90;2.65;;;11.70;66.20;;;;;;6177157;28;20046;-79
2022/02/18 00:22:45;;;;;;;18.80;2.47;;;11.70;66.20;;;;;;6176281;28;20098;-78
2022/02/18 00:25:47;;;;;;;17.10;4.50;;;11.70;66.30;;;;;;6175616;28;20038;-80
2022/02/18 00:28:49;;;;;;;20.73;3.20;;;11.70;66.20;;;;;;6176862;28;20061;-80
2022/02/18 00:31:53;;;;;;;16.52;2.78;;;11.70;66.30;;;;;;6175890;28;20420;-79
2022/02/18 00:34:54;;;;;;;16.00;2.17;;;11.70;66.20;;;;;;6175628;28;20082;-80
2022/02/18 00:37:57;;;;;;;21.13;3.08;;;11.70;66.20;;;;;;6174753;28;20385;-80
2022/02/18 00:40:59;;;;;;;17.45;2.47;;;11.70;66.30;;;;;;6187715;28;20078;-80
2022/02/18 00:44:00;;;;;;;23.98;3.00;;;11.70;66.10;;;;;;6199997;28;20046;-80
2022/02/18 00:47:05;;;;;;;22.13;3.72;;;11.70;66.00;;;;;;6199785;28;20054;-81
2022/02/18 00:50:07;;;;;;;18.58;3.25;;;11.80;65.80;;;;;;6199665;28;20045;-80
2022/02/18 00:53:09;;;;;;;22.23;2.35;;;11.80;65.90;;;;;;6199883;28;20050;-79
2022/02/18 00:56:11;;;;;;;22.65;3.45;;;11.80;65.80;;;;;;6198986;28;20046;-79
2022/02/18 00:59:13;;;;;;;21.02;2.47;;;11.80;65.80;;;;;;6199422;28;20089;-81
2022/02/18 01:02:16;;;;;;;13.93;2.35;;;11.80;65.80;;;;;;6199380;28;20129;-79
2022/02/18 01:05:18;;;;;;;10.15;2.78;;;11.90;65.80;;;;;;6199143;28;20058;-79
2022/02/18 01:08:19;;;;;;;19.67;3.55;;;11.80;65.70;;;;;;6193793;28;20059;-79
2022/02/18 01:11:22;;;;;;;20.17;2.88;;;11.90;65.70;;;;;;6188523;28;20053;-80
2022/02/18 01:14:25;;;;;;;16.92;2.03;;;11.90;65.50;;;;;;6199468;28;20128;-80
2022/02/18 01:17:28;;;;;;;20.90;2.40;;;11.90;65.60;;;;;;6199459;28;20062;-80
2022/02/18 01:20:29;;;;;;;12.73;1.83;;;11.90;65.50;;;;;;6199507;28;20413;-80
2022/02/18 01:23:31;;;;;;;14.88;2.33;;;11.90;65.40;;;;;;6198255;28;20046;-80
2022/02/18 01:26:34;;;;;;;14.27;2.67;;;11.90;65.50;;;;;;6198465;28;20052;-80
2022/02/18 01:29:39;;;;;;;20.08;2.80;;;11.90;65.50;;;;;;6197975;28;20511;-80
2022/02/18 01:32:42;;;;;;;15.32;2.58;;;11.90;65.60;;;;;;6199244;28;20412;-80
2022/02/18 01:35:44;;;;;;;13.45;1.90;;;11.90;65.50;;;;;;6193634;28;20043;-79
2022/02/18 01:38:46;;;;;;;11.60;3.03;;;11.90;65.70;;;;;;6224437;22;20057;-85
2022/02/18 01:41:48;;;;;;;21.70;2.47;;;11.80;65.90;;;;;;6220421;28;20046;-84
2022/02/18 01:44:51;;;;;;;21.00;2.92;;;12.00;66.10;;;;;;6228501;28;20052;-85
2022/02/18 01:47:54;;;;;;;10.38;2.33;;;11.90;66.00;;;;;;6227418;28;20049;-85
2022/02/18 01:50:58;;;;;;;17.30;2.25;;;12.00;66.00;;;;;;6227645;28;20125;-84
2022/02/18 01:53:59;;;;;;;19.20;3.42;;;11.90;66.10;;;;;;6228086;28;20046;-84
2022/02/18 01:57:01;;;;;;;10.90;2.55;;;11.90;65.90;;;;;;6229375;28;20419;-85
2022/02/18 02:00:04;;;;;;;16.65;2.50;;;12.00;66.10;;;;;;6228491;28;20129;-85
2022/02/18 02:03:07;;;;;;;20.33;2.05;;;12.00;66.20;;;;;;6206197;28;20050;-86
2022/02/18 02:06:09;;;;;;;13.80;2.15;;;12.00;66.20;;;;;;6204141;28;20049;-84
2022/02/18 02:09:12;;;;;;;10.25;2.15;;;11.90;66.40;;;;;;6209281;28;20069;-84
2022/02/18 02:12:14;;;;;;;16.50;1.90;;;11.90;66.90;;;;;;6221584;28;20065;-83
2022/02/18 02:15:15;;;;;;;13.93;3.97;;;11.90;67.30;;;;;;6229155;28;20053;-84
2022/02/18 02:18:18;;;;;;;13.25;2.25;;;11.80;67.70;;;;;;6230007;28;20077;-85
2022/02/18 02:21:22;;;;;;;9.10;2.17;;;11.80;68.00;;;;;;6230278;28;20049;-85
2022/02/18 02:24:25;;;;;;;13.60;2.00;;;11.70;68.20;;;;;;6228763;28;20474;-84
2022/02/18 02:27:27;;;;;;;14.63;3.55;;;11.70;68.50;;;;;;6229561;28;20056;-84
2022/02/18 02:30:29;;;;;;;17.17;2.00;;;11.70;68.80;;;;;;6230204;28;20050;-85
2022/02/18 02:33:31;;;;;;;10.27;1.85;;;11.70;68.90;;;;;;6230255;28;20049;-85
2022/02/18 02:36:32;;;;;;;13.60;1.95;;;11.70;69.10;;;;;;6229539;28;20052;-84
2022/02/18 02:39:36;;;;;;;9.88;1.92;;;11.70;69.10;;;;;;6222113;28;20520;-84
2022/02/18 02:42:37;;;;;;;20.45;4.35;;;11.70;69.20;;;;;;6221631;28;20056;-85
2022/02/18 02:45:39;;;;;;;16.00;2.05;;;11.60;69.40;;;;;;6228867;28;20397;-85
2022/02/18 02:48:41;;;;;;;10.10;1.70;;;11.60;69.70;;;;;;6228722;28;20053;-83
2022/02/18 02:51:43;;;;;;;21.60;3.17;;;11.50;69.70;;;;;;6229370;28;20042;-85
2022/02/18 02:54:46;;;;;;;16.88;2.72;;;11.60;69.80;;;;;;6229009;28;20071;-85
2022/02/18 02:57:48;;;;;;;13.70;2.58;;;11.70;69.70;;;;;;6229778;28;20104;-85
2022/02/18 03:00:50;;;;;;;15.88;2.00;;;11.70;69.50;;;;;;6232806;28;20053;-84
2022/02/18 03:03:51;;;;;;;10.90;2.22;;;11.70;69.40;;;;;;6233543;28;20127;-83
2022/02/18 03:06:54;;;;;;;10.02;1.60;;;11.70;69.10;;;;;;6232389;28;20056;-84
2022/02/18 03:09:57;;;;;;;10.05;2.10;;;11.80;68.90;;;;;;6224834;28;20053;-84
2022/02/18 03:12:59;;;;;;;19.88;2.13;;;11.80;68.50;;;;;;6235124;28;20042;-84
2022/02/18 03:16:01;;;;;;;10.30;1.58;;;11.80;68.50;;;;;;6237479;28;20463;-85
2022/02/18 03:19:03;;;;;;;12.88;2.25;;;11.80;68.40;;;;;;6235537;28;20050;-85
2022/02/18 03:22:06;;;;;;;20.67;2.20;;;11.70;68.30;;;;;;6235783;28;20062;-85
2022/02/18 03:25:10;;;;;;;10.48;1.85;;;11.70;68.50;;;;;;6235222;28;20066;-85
2022/02/18 03:28:12;;;;;;;17.48;2.08;;;11.80;69.20;;;;;;6233829;28;20056;-85
2022/02/18 03:31:14;;;;;;;11.27;3.55;;;11.80;68.50;;;;;;6217088;28;20045;-85
2022/02/18 03:34:16;;;;;;;11.18;1.30;;;11.80;68.50;;;;;;6217444;28;20046;-85
2022/02/18 03:37:17;;;;;;;10.57;1.67;;;11.80;68.40;;;;;;6212603;28;20054;-85
2022/02/18 03:40:21;;;;;;;15.02;2.63;;;11.70;68.30;;;;;;6217653;28;20061;-84
2022/02/18 03:43:23;;;;;;;18.92;2.20;;;11.70;68.10;;;;;;6232221;28;20078;-84
2022/02/18 03:46:25;;;;;;;11.02;1.52;;;11.80;68.10;;;;;;6233134;28;20499;-84
2022/02/18 03:49:27;;;;;;;8.60;1.40;;;11.80;68.10;;;;;;6233820;28;20109;-84
2022/02/18 03:52:29;;;;;;;13.27;2.10;;;11.70;68.20;;;;;;6233239;28;20077;-83
2022/02/18 03:55:32;;;;;;;10.82;1.65;;;11.60;68.10;;;;;;6232920;28;20041;-85
2022/02/18 03:58:34;;;;;;;12.52;2.03;;;11.60;68.40;;;;;;6211022;28;20050;-84
2022/02/18 04:01:35;;;;;;;12.90;2.85;;;11.70;68.40;;;;;;6207139;28;20144;-84
2022/02/18 04:04:37;;;;;;;4.32;1.63;;;11.70;68.40;;;;;;6205740;28;20132;-83
2022/02/18 04:07:39;;;;;;;11.18;2.67;;;11.60;68.30;;;;;;6204975;28;20109;-85
2022/02/18 04:10:42;;;;;;;12.52;1.90;;;11.60;68.50;;;;;;6213724;28;20061;-85
2022/02/18 04:13:44;;;;;;;11.48;2.13;;;11.60;68.60;;;;;;6230809;28;20515;-83
2022/02/18 04:16:45;;;;;;;13.50;2.00;;;11.60;68.90;;;;;;6229989;28;20054;-85
2022/02/18 04:19:47;;;;;;;16.60;2.47;;;11.60;68.90;;;;;;6230493;28;20074;-85
2022/02/18 04:22:49;;;;;;;10.93;3.60;;;11.60;69.00;;;;;;6230307;28;20100;-84
2022/02/18 04:25:52;;;;;;;16.50;2.63;;;11.50;69.00;;;;;;6229696;28;20048;-84
2022/02/18 04:28:54;;;;;;;9.77;1.60;;;11.50;69.10;;;;;;6230937;28;20216;-84
2022/02/18 04:31:56;;;;;;;9.38;1.77;;;11.60;69.00;;;;;;6231469;28;20038;-84
2022/02/18 04:34:58;;;;;;;14.52;1.52;;;11.60;68.90;;;;;;6229752;28;20052;-85
2022/02/18 04:38:00;;;;;;;8.23;1.80;;;11.70;68.80;;;;;;6228145;28;20041;-84
2022/02/18 04:41:03;;;;;;;8.85;1.80;;;11.70;68.80;;;;;;6217867;28;20050;-85
2022/02/18 04:44:06;;;;;;;25.65;3.05;;;11.70;68.80;;;;;;6230088;28;20118;-85
2022/02/18 04:47:08;;;;;;;10.23;1.83;;;11.80;68.90;;;;;;6230735;28;20056;-84
2022/02/18 04:50:10;;;;;;;18.42;2.85;;;11.90;68.80;;;;;;6229961;28;20048;-84
2022/02/18 04:53:12;;;;;;;10.13;2.05;;;11.90;68.50;;;;;;6229980;28;20053;-84
2022/02/18 04:56:15;;;;;;;17.33;5.20;;;12.00;68.40;;;;;;6228771;28;20056;-84
2022/02/18 04:59:19;;;;;;;9.98;1.52;;;12.00;68.20;;;;;;6229170;28;20509;-85
2022/02/18 05:02:21;;;;;;;12.80;1.80;;;12.00;68.10;;;;;;6228341;28;20499;-84
2022/02/18 05:05:22;;;;;;;12.55;2.30;;;12.00;68.20;;;;;;6228686;28;20050;-83
2022/02/18 05:08:24;;;;;;;5.75;1.35;;;12.00;67.80;;;;;;6223491;28;20054;-83
2022/02/18 05:11:28;;;;;;;12.27;2.47;;;12.00;67.60;;;;;;6217528;28;20133;-85
2022/02/18 05:14:29;;;;;;;9.30;1.50;;;12.00;67.60;;;;;;6227329;28;20050;-83
2022/02/18 05:17:31;;;;;;;8.45;2.45;;;12.00;67.30;;;;;;6226999;28;20056;-85
2022/02/18 05:20:33;;;;;;;11.45;3.00;;;12.00;67.00;;;;;;6227505;28;20100;-84
2022/02/18 05:23:35;;;;;;;12.13;2.22;;;12.00;66.70;;;;;;6226640;28;20180;-85
2022/02/18 05:26:39;;;;;;;7.38;1.92;;;12.00;66.20;;;;;;6227496;28;20129;-84
2022/02/18 05:29:40;;;;;;;12.82;2.08;;;12.20;66.30;;;;;;6227503;28;20060;-84
2022/02/18 05:32:42;;;;;;;8.48;1.02;;;12.20;66.00;;;;;;6228276;28;20192;-83
2022/02/18 05:35:44;;;;;;;16.58;2.15;;;12.20;66.00;;;;;;6227266;28;20133;-85
2022/02/18 05:38:46;;;;;;;9.57;1.63;;;12.20;65.80;;;;;;6218631;28;20050;-84
2022/02/18 05:41:50;;;;;;;11.43;2.58;;;12.30;65.80;;;;;;6218086;28;20046;-84
2022/02/18 05:44:52;;;;;;;10.30;1.52;;;12.30;65.80;;;;;;6226939;28;20045;-83
2022/02/18 05:47:54;;;;;;;16.30;2.13;;;12.40;66.10;;;;;;6225274;28;20152;-84
2022/02/18 05:50:56;;;;;;;8.68;2.17;;;12.30;66.40;;;;;;6225998;28;20046;-84
2022/02/18 05:53:58;;;;;;;13.82;1.50;;;12.30;66.70;;;;;;6224059;28;20057;-84
2022/02/18 05:57:02;;;;;;;9.63;2.28;;;12.30;66.80;;;;;;6202162;28;20046;-82
2022/02/18 06:00:07;;;;;;;8.63;1.60;;;12.20;66.90;;;;;;6203044;28;20053;-84
2022/02/18 06:03:09;;;;;;;16.00;2.13;;;12.20;67.10;;;;;;6202491;28;20070;-84
2022/02/18 06:06:11;;;;;;;9.57;1.67;;;12.20;67.30;;;;;;6202513;28;20039;-84
2022/02/18 06:09:13;;;;;;;8.93;1.52;;;12.20;67.70;;;;;;6207442;28;20077;-84
2022/02/18 06:12:16;;;;;;;8.77;2.40;;;12.30;68.30;;;;;;6217804;28;20113;-84
2022/02/18 06:15:18;;;;;;;12.00;2.22;;;12.30;68.80;;;;;;6226121;28;20045;-83
2022/02/18 06:18:20;;;;;;;34.28;7.25;;;12.30;69.20;;;;;;6222490;28;20160;-84
2022/02/18 06:21:22;;;;;;;10.38;1.50;;;12.30;69.70;;;;;;6203884;28;20078;-82
2022/02/18 06:24:24;;;;;;;10.50;2.58;;;12.30;70.20;;;;;;6205571;28;20207;-82
2022/02/18 06:27:27;;;;;;;13.93;1.77;;;12.30;70.50;;;;;;6202446;28;20110;-82
2022/02/18 06:30:29;;;;;;;15.32;1.92;;;12.50;71.20;;;;;;6202638;28;20508;-83
2022/02/18 06:33:31;;;;;;;11.65;1.50;;;12.50;71.70;;;;;;6203761;28;20054;-83
2022/02/18 06:36:33;;;;;;;13.88;2.17;;;12.50;72.30;;;;;;6207302;28;20061;-85
2022/02/18 06:39:35;;;;;;;14.23;2.70;;;12.60;72.60;;;;;;6207321;28;20049;-82
2022/02/18 06:42:38;;;;;;;11.35;1.23;;;12.70;73.00;;;;;;6224505;28;20050;-82
2022/02/18 06:45:40;;;;;;;16.00;2.33;;;12.70;73.10;;;;;;6233517;28;20415;-85
2022/02/18 06:48:42;;;;;;;16.58;2.15;;;12.70;73.60;;;;;;6234042;28;20046;-84
2022/02/18 06:51:44;;;;;;;10.43;2.72;;;12.70;74.20;;;;;;6233721;28;20056;-84
2022/02/18 06:54:45;;;;;;;11.88;1.83;;;12.80;74.60;;;;;;6237382;28;20066;-83
2022/02/18 06:57:49;;;;;;;7.80;1.55;;;12.70;75.00;;;;;;6242996;28;20125;-83
2022/02/18 07:00:51;;;;;;;6.90;1.50;;;12.80;75.40;;;;;;6236442;28;20049;-84
2022/02/18 07:03:53;;;;;;;11.25;2.05;;;12.80;75.80;;;;;;6233421;28;20050;-85
2022/02/18 07:06:55;;;;;;;7.43;1.83;;;12.80;76.60;;;;;;6232429;28;20064;-84
2022/02/18 07:09:56;;;;;;;15.25;2.00;;;12.80;77.00;;;;;;6223179;28;20041;-84
2022/02/18 07:13:00;;;;;;;9.82;1.33;;;12.90;77.00;;;;;;6227147;28;20655;-85
2022/02/18 07:16:01;;;;;;;9.90;1.85;;;12.90;77.30;;;;;;6231588;28;20415;-85
2022/02/18 07:19:03;;;;;;;15.73;2.67;;;12.90;77.60;;;;;;6232125;28;20197;-84
2022/02/18 07:22:05;;;;;;;13.23;1.85;;;13.00;77.60;;;;;;6232297;28;20057;-85
2022/02/18 07:25:07;;;;;;;9.27;1.33;;;12.90;77.60;;;;;;6232646;28;20467;-84
2022/02/18 07:28:10;;;;;;;8.20;1.10;;;13.00;77.80;;;;;;6239532;28;20030;-85
2022/02/18 07:31:12;;;;;;;4.40;0.77;;;13.00;78.30;;;;;;6236038;28;20054;-83
2022/02/18 07:34:14;;;;;;;6.80;1.25;;;12.90;79.00;;;;;;6235478;28;20037;-85
2022/02/18 07:37:16;;;;;;;3.67;0.73;;;13.00;79.50;;;;;;6241254;22;20499;-80
2022/02/18 07:40:18;;;;;;;10.30;2.45;;;13.00;79.80;;;;;;6186882;28;20057;-79
2022/02/18 07:43:21;;;;;;;8.93;1.23;;;13.00;80.10;;;;;;6200693;28;20048;-80
2022/02/18 07:46:23;;;;;;;5.38;0.82;;;13.00;80.30;;;;;;6202456;28;20050;-78
2022/02/18 07:49:25;;;;;;;1.83;0.57;;;13.10;80.60;;;;;;6202256;28;20082;-80
2022/02/18 07:52:27;;;;;;;5.13;0.70;;;13.20;80.50;;;;;;6180522;28;20051;-80
2022/02/18 07:55:29;;;;;;;8.35;2.50;;;13.30;80.30;;;;;;6179884;28;20046;-79
2022/02/18 07:58:32;;;;;;;2.97;0.40;;;13.40;80.10;;;;;;6179638;28;20464;-79
2022/02/18 08:01:33;;;;;;;10.07;0.90;;;13.40;79.80;;;;;;6178252;28;20131;-79
2022/02/18 08:04:35;;;;;;;3.88;0.70;;;13.50;79.80;;;;;;6178847;28;20542;-79
2022/02/18 08:07:37;;;;;;;7.63;0.70;;;13.60;79.60;;;;;;6178158;28;20051;-79
2022/02/18 08:10:39;;;;;;;6.38;0.77;;;13.60;79.70;;;;;;6186396;28;20069;-79
2022/02/18 08:13:42;;;;;;;7.13;1.15;;;13.60;79.70;;;;;;6202578;28;20490;-79
2022/02/18 08:16:44;;;;;;;4.78;0.50;;;13.70;79.70;;;;;;6202869;28;20042;-78
2022/02/18 08:19:45;;;;;;;4.40;0.40;;;13.70;79.40;;;;;;6202380;28;20178;-79
2022/02/18 08:22:47;;;;;;;1.85;0.40;;;13.80;79.20;;;;;;6202559;28;20058;-79
2022/02/18 08:25:49;;;;;;;5.35;1.20;;;13.80;79.10;;;;;;6202099;28;20402;-79
2022/02/18 08:28:53;;;;;;;2.28;0.30;;;13.90;78.70;;;;;;6183966;28;20061;-78
2022/02/18 08:31:56;;;;;;;2.83;0.52;;;14.00;78.60;;;;;;6178096;28;20057;-78
2022/02/18 08:34:57;;;;;;;0.82;0.40;;;14.10;78.10;;;;;;6177566;28;20047;-79
2022/02/18 08:38:00;;;;;;;1.42;0.22;;;14.10;77.90;;;;;;6178041;28;20050;-79
2022/02/18 08:41:02;;;;;;;1.98;0.20;;;14.10;77.80;;;;;;6188799;28;20377;-79
2022/02/18 08:44:06;;;;;;;4.50;0.30;;;14.10;77.80;;;;;;6201723;28;20046;-79
2022/02/18 08:47:07;;;;;;;2.20;0.40;;;14.20;77.50;;;;;;6201673;28;20470;-79
2022/02/18 08:50:10;;;;;;;5.88;0.60;;;14.20;77.30;;;;;;6203814;28;20508;-79
2022/02/18 08:53:12;;;;;;;1.65;0.20;;;14.40;77.20;;;;;;6203525;28;20213;-80
2022/02/18 08:56:14;;;;;;;1.15;0.32;;;14.50;76.70;;;;;;6201832;28;20046;-80
2022/02/18 08:59:17;;;;;;;4.70;0.40;;;14.70;76.20;;;;;;6200653;28;20050;-80
2022/02/18 09:02:19;;;;;;;0.90;0.20;;;14.70;75.90;;;;;;6202321;28;20125;-79
2022/02/18 09:05:21;;;;;;;1.23;0.30;;;14.70;76.30;;;;;;6201548;28;20058;-79
2022/02/18 09:08:24;;;;;;;2.45;0.50;;;14.80;75.70;;;;;;6196086;28;20122;-79
2022/02/18 09:11:26;;;;;;;0.73;0.20;;;14.80;75.70;;;;;;6191625;28;20060;-79
2022/02/18 09:14:29;;;;;;;5.82;0.57;;;14.80;75.70;;;;;;6200875;28;20058;-78
2022/02/18 09:17:31;;;;;;;1.67;0.50;;;14.80;75.60;;;;;;6201942;28;20042;-79
2022/02/18 09:20:33;;;;;;;3.13;0.22;;;14.90;75.60;;;;;;6202291;28;20057;-79
2022/02/18 09:23:36;;;;;;;1.17;0.32;;;15.10;75.30;;;;;;6201411;28;20050;-79
2022/02/18 09:26:38;;;;;;;3.13;0.20;;;15.20;74.40;;;;;;6200075;28;20053;-79
2022/02/18 09:29:41;;;;;;;1.55;0.30;;;15.30;74.20;;;;;;6180693;28;20047;-79
2022/02/18 09:32:43;;;;;;;3.08;0.30;;;15.40;73.90;;;;;;6174465;28;20050;-79
2022/02/18 09:35:46;;;;;;;1.95;0.38;;;15.40;73.50;;;;;;6176878;28;20043;-80
2022/02/18 09:38:48;;;;;;;0.68;0.20;;;15.40;73.50;;;;;;6187619;28;20078;-79
2022/02/18 09:41:50;;;;;;;3.28;0.50;;;15.40;73.30;;;;;;6191331;28;20053;-79
2022/02/18 09:44:53;;;;;;;2.53;0.25;;;15.40;73.30;;;;;;6177183;28;20050;-79
2022/02/18 09:47:56;;;;;;;2.83;0.38;;;15.50;73.30;;;;;;6176467;28;20128;-80
2022/02/18 09:50:58;;;;;;;0.85;0.20;;;15.60;72.80;;;;;;6177116;28;20049;-81
2022/02/18 09:54:00;;;;;;;0.52;0.20;;;15.70;72.60;;;;;;6177088;28;20079;-80
2022/02/18 09:57:02;;;;;;;0.80;0.20;;;15.70;72.30;;;;;;6177692;28;20427;-80
2022/02/18 10:00:07;;;;;;;2.40;0.52;;;15.70;72.30;;;;;;6178975;28;20072;-80
2022/02/18 10:03:09;;;;;;;1.80;0.73;;;15.70;72.20;;;;;;6177534;28;20046;-82
2022/02/18 10:06:12;;;;;;;1.55;0.40;;;15.70;72.00;;;;;;6177020;28;20106;-81
2022/02/18 10:09:13;;;;;;;1.55;0.20;;;15.70;72.00;;;;;;6185526;28;20515;-82
2022/02/18 10:12:15;;;;;;;3.95;0.40;;;15.90;71.60;;;;;;6198807;28;20050;-81
2022/02/18 10:15:19;;;;;;;0.65;0.47;;;16.20;70.90;;;;;;6208354;28;20527;-82
2022/02/18 10:18:20;;;;;;;5.13;0.25;;;16.30;70.10;;;;;;6208640;28;20046;-80
2022/02/18 10:21:30;;;;;;;2.35;0.30;;;16.50;69.30;;;;;;6210627;28;20046;-82
2022/02/18 10:24:47;;;;;;;1.95;0.52;;;16.80;68.80;;;;;;6211432;28;20055;-82
2022/02/18 10:27:51;;;;;;;2.67;0.20;;;17.50;66.80;;;;;;6206164;28;20056;-82
2022/02/18 10:31:04;;;;;;;1.30;0.22;;;17.80;65.30;;;;;;6190987;28;20049;-81
2022/02/18 10:34:08;;;;;;;3.15;0.80;;;18.30;63.20;;;;;;6180249;28;20133;-80
2022/02/18 10:37:10;;;;;;;2.40;0.30;;;18.80;61.80;;;;;;6179914;28;20043;-80
2022/02/18 10:40:14;;;;;;;3.35;0.20;;;19.20;60.70;;;;;;6188531;28;20043;-80
2022/02/18 10:43:18;;;;;;;3.33;0.93;;;19.40;59.10;;;;;;6201304;28;20046;-81
2022/02/18 10:46:22;;;;;;;1.35;0.43;;;19.60;58.50;;;;;;6204752;28;20069;-80
2022/02/18 10:49:26;;;;;;;0.85;0.43;;;19.80;58.30;;;;;;6204338;28;20155;-80
2022/02/18 10:52:28;;;;;;;1.83;0.45;;;20.20;56.60;;;;;;6203848;28;20054;-81
2022/02/18 10:55:30;;;;;;;3.33;0.35;;;20.50;55.60;;;;;;6203630;28;20068;-80
2022/02/18 10:58:35;;;;;;;2.60;0.20;;;20.50;55.50;;;;;;6194029;28;20078;-83
2022/02/18 11:01:44;;;;;;;0.63;0.20;;;20.40;54.60;;;;;;6204222;28;20050;-82
2022/02/18 11:04:49;;;;;;;3.95;0.30;;;20.30;55.10;;;;;;6205975;28;20112;-82
2022/02/18 11:07:51;;;;;;;0.80;0.25;;;20.40;55.00;;;;;;6205153;28;20049;-82
2022/02/18 11:10:53;;;;;;;1.25;0.20;;;20.30;54.70;;;;;;6193290;28;20050;-81
2022/02/18 11:14:04;;;;;;;2.90;0.30;;;20.50;54.90;;;;;;6205530;28;20169;-82
2022/02/18 11:17:07;;;;;;;3.10;0.60;;;20.50;54.30;;;;;;6204632;28;20054;-82
2022/02/18 11:20:12;;;;;;;4.85;0.65;;;20.70;54.20;;;;;;6201821;28;20159;-83
2022/02/18 11:23:17;;;;;;;4.32;0.98;;;20.90;53.00;;;;;;6204466;28;20042;-82
2022/02/18 11:26:21;;;;;;;2.63;0.35;;;20.70;53.20;;;;;;6207125;28;20512;-81
2022/02/18 11:29:22;;;;;;;1.48;0.30;;;20.30;54.10;;;;;;6204158;28;20138;-81
2022/02/18 11:32:35;;;;;;;4.85;0.47;;;20.20;54.60;;;;;;6185026;28;20051;-82
2022/02/18 11:35:48;;;;;;;1.98;0.50;;;20.10;55.10;;;;;;6178957;28;20051;-80
2022/02/18 11:39:02;;;;;;;7.45;0.82;;;20.10;54.60;;;;;;6180649;28;20047;-81
2022/02/18 11:42:14;;;;;;;6.28;1.40;;;20.00;55.20;;;;;;6194436;28;20054;-80
2022/02/18 11:45:17;;;;;;;1.33;0.30;;;20.10;54.90;;;;;;6203832;28;20372;-80
2022/02/18 11:48:41;;;;;;;1.20;0.20;;;20.30;54.80;;;;;;6201723;28;20060;-80
2022/02/18 11:51:45;;;;;;;2.20;0.43;;;20.30;54.20;;;;;;6199546;28;20136;-82
2022/02/18 11:54:55;;;;;;;4.75;0.35;;;20.10;54.40;;;;;;6202024;28;20085;-81
2022/02/18 11:58:00;;;;;;;2.67;0.40;;;20.10;54.40;;;;;;6202307;28;20061;-81
2022/02/18 12:01:02;;;;;;;3.15;0.47;;;20.10;54.80;;;;;;6202343;28;20046;-81
2022/02/18 12:04:19;;;;;;;5.15;0.20;;;20.30;54.60;;;;;;6202428;28;20057;-82
2022/02/18 12:07:31;;;;;;;0.90;0.40;;;20.30;53.80;;;;;;6201570;28;20520;-81
2022/02/18 12:10:34;;;;;;;6.43;0.68;;;20.00;54.50;;;;;;6182589;28;20093;-82
2022/02/18 12:13:53;;;;;;;1.63;0.40;;;19.80;55.00;;;;;;6202095;28;20081;-81
2022/02/18 12:16:55;;;;;;;3.30;0.40;;;19.70;55.60;;;;;;6202722;28;20050;-80
2022/02/18 12:20:11;;;;;;;4.60;2.47;;;19.40;56.10;;;;;;6203948;28;20183;-82
2022/02/18 12:23:25;;;;;;;23.17;14.82;;;19.20;56.90;;;;;;6202572;28;20058;-81
2022/02/18 12:26:27;;;;;;;6.30;3.97;;;19.20;57.30;;;;;;6204121;28;20479;-80
2022/02/18 12:29:33;;;;;;;8.65;3.22;;;19.00;57.80;;;;;;6202209;28;20050;-80
2022/02/18 12:32:35;;;;;;;12.75;6.82;;;18.90;58.20;;;;;;6189977;28;20051;-80
2022/02/18 12:35:39;;;;;;;17.25;7.38;;;18.90;58.30;;;;;;6178640;28;20051;-80
2022/02/18 12:38:42;;;;;;;8.27;2.20;;;18.80;58.80;;;;;;6178307;28;20098;-80
2022/02/18 12:41:46;;;;;;;12.82;6.28;;;18.90;59.20;;;;;;6195362;28;20046;-81
2022/02/18 12:44:49;;;;;;;3.28;0.75;;;18.80;59.30;;;;;;6203986;28;20080;-81
2022/02/18 12:47:52;;;;;;;1.98;0.70;;;18.70;59.80;;;;;;6204113;28;20049;-83
2022/02/18 12:51:00;;;;;;;2.17;0.47;;;18.50;60.50;;;;;;6205223;28;20125;-82
2022/02/18 12:54:02;;;;;;;4.85;0.40;;;18.40;60.60;;;;;;6204984;28;20089;-81
2022/02/18 12:57:15;;;;;;;1.13;0.30;;;18.30;60.70;;;;;;6203461;28;20172;-80
2022/02/18 13:00:18;;;;;;;1.90;0.47;;;18.20;61.20;;;;;;6203397;28;20061;-81
2022/02/18 13:03:21;;;;;;;1.83;0.50;;;18.20;61.40;;;;;;6205761;28;20058;-83
2022/02/18 13:06:24;;;;;;;1.17;0.22;;;18.20;61.50;;;;;;6205733;28;20097;-82
2022/02/18 13:09:28;;;;;;;1.73;0.30;;;18.20;61.80;;;;;;6197266;28;20043;-80
2022/02/18 13:12:32;;;;;;;1.13;0.40;;;18.20;61.80;;;;;;6195545;28;20054;-81
2022/02/18 13:15:34;;;;;;;2.58;0.50;;;18.20;61.50;;;;;;6202214;28;20069;-80
2022/02/18 13:18:36;;;;;;;2.97;0.15;;;18.10;61.50;;;;;;6203599;28;20046;-81
2022/02/18 13:21:39;;;;;;;2.63;0.20;;;18.10;61.80;;;;;;6204468;28;20058;-80
2022/02/18 13:24:41;;;;;;;0.95;0.20;;;18.00;61.90;;;;;;6204210;28;20408;-81
2022/02/18 13:27:43;;;;;;;3.38;0.50;;;18.00;62.20;;;;;;6203973;28;20053;-81
2022/02/18 13:30:48;;;;;;;3.53;0.98;;;17.90;62.40;;;;;;6203651;28;20428;-81
2022/02/18 13:33:51;;;;;;;5.03;3.88;;;17.80;62.70;;;;;;6188701;28;20460;-82
2022/02/18 13:36:55;;;;;;;8.18;2.45;;;17.80;62.70;;;;;;6179393;28;20265;-80
2022/02/18 13:39:57;;;;;;;8.40;5.80;;;17.70;62.60;;;;;;6190300;28;20042;-81
2022/02/18 13:43:00;;;;;;;4.78;2.25;;;17.60;62.60;;;;;;6184957;28;20051;-81
2022/02/18 13:46:02;;;;;;;1.95;1.05;;;17.70;62.80;;;;;;6179389;28;20131;-81
2022/02/18 13:49:07;;;;;;;2.35;0.95;;;17.60;62.10;;;;;;6179350;28;20050;-80
2022/02/18 13:52:11;;;;;;;7.28;1.75;;;17.70;62.30;;;;;;6177951;28;20042;-81
2022/02/18 13:55:21;;;;;;;5.07;2.17;;;17.60;61.40;;;;;;6180825;28;20049;-81
2022/02/18 13:58:24;;;;;;;2.38;1.75;;;17.50;61.70;;;;;;6203437;28;20057;-82
2022/02/18 14:01:27;;;;;;;2.03;0.90;;;17.60;61.80;;;;;;6202988;28;20046;-81
2022/02/18 14:04:30;;;;;;;8.55;2.67;;;17.60;61.80;;;;;;6203783;28;20522;-82
2022/02/18 14:07:33;;;;;;;8.95;5.85;;;17.50;61.90;;;;;;6202494;28;20057;-82
2022/02/18 14:10:39;;;;;;;1.23;0.57;;;17.60;62.20;;;;;;6187132;28;20118;-82
2022/02/18 14:13:41;;;;;;;2.10;0.95;;;17.70;62.40;;;;;;6161395;28;20062;-82
2022/02/18 14:16:54;;;;;;;5.82;2.97;;;17.80;62.30;;;;;;6159500;28;20052;-82
2022/02/18 14:19:58;;;;;;;2.33;0.43;;;17.80;62.10;;;;;;6172206;28;20105;-81
2022/02/18 14:23:01;;;;;;;2.90;0.65;;;17.70;62.10;;;;;;6180208;28;20421;-82
2022/02/18 14:26:14;;;;;;;1.23;0.50;;;17.70;62.20;;;;;;6180899;28;20640;-81
2022/02/18 14:29:16;;;;;;;1.88;0.73;;;17.70;62.30;;;;;;6179278;28;20053;-81
2022/02/18 14:32:25;;;;;;;3.15;0.98;;;17.60;62.50;;;;;;6177900;28;20106;-79
2022/02/18 14:35:27;;;;;;;4.90;1.98;;;17.60;62.60;;;;;;6176765;28;20070;-80
2022/02/18 14:38:30;;;;;;;1.63;0.88;;;17.40;62.80;;;;;;6176987;28;20051;-80
2022/02/18 14:41:32;;;;;;;2.50;0.73;;;17.30;63.30;;;;;;6188834;28;20050;-82
2022/02/18 14:44:55;;;;;;;4.68;1.25;;;17.20;63.80;;;;;;6155531;28;20186;-81
2022/02/18 14:47:57;;;;;;;3.72;1.67;;;17.20;64.10;;;;;;6154876;28;20047;-81
2022/02/18 14:50:59;;;;;;;2.55;0.52;;;17.20;64.10;;;;;;6154699;28;20055;-81
2022/02/18 14:54:02;;;;;;;6.18;1.70;;;17.10;64.20;;;;;;6155292;28;20090;-81
2022/02/18 14:57:04;;;;;;;2.10;1.05;;;16.90;65.00;;;;;;6159558;28;20055;-81
2022/02/18 15:00:09;;;;;;;10.70;5.95;;;16.90;65.10;;;;;;6157561;28;20054;-80
2022/02/18 15:03:11;;;;;;;1.45;0.70;;;16.80;65.40;;;;;;6157745;28;20048;-79
2022/02/18 15:06:12;;;;;;;2.95;1.73;;;16.70;65.60;;;;;;6160180;28;20114;-80
2022/02/18 15:09:16;;;;;;;8.60;5.88;;;16.70;65.70;;;;;;6180375;28;20038;-81
2022/02/18 15:12:19;;;;;;;3.88;2.10;;;16.60;65.60;;;;;;6199998;28;20046;-82
2022/02/18 15:15:20;;;;;;;1.05;0.57;;;16.60;65.50;;;;;;6206653;28;20053;-81
2022/02/18 15:18:26;;;;;;;2.00;0.30;;;16.60;65.40;;;;;;6206358;28;20050;-81
2022/02/18 15:21:28;;;;;;;1.00;0.30;;;16.60;65.00;;;;;;6206831;28;20096;-81
2022/02/18 15:24:32;;;;;;;2.38;0.45;;;16.70;64.50;;;;;;6206290;28;20061;-80
2022/02/18 15:27:34;;;;;;;2.42;0.40;;;16.60;64.50;;;;;;6207216;28;20046;-80
2022/02/18 15:37:14;;;;;;;1.75;0.28;;;16.50;64.30;;;;;;6176416;28;20050;-81
2022/02/18 15:43:37;;;;;;;4.97;0.28;;;16.60;63.60;;;;;;6205680;28;20055;-82
2022/02/18 15:46:38;;;;;;;4.97;0.57;;;16.60;63.30;;;;;;6205552;28;20124;-81
2022/02/18 15:49:41;;;;;;;1.50;0.30;;;16.60;63.20;;;;;;6206442;28;20058;-81
2022/02/18 15:52:43;;;;;;;0.80;0.40;;;16.70;63.00;;;;;;6206913;28;20088;-83
2022/02/18 15:55:46;;;;;;;1.20;0.40;;;16.60;62.90;;;;;;6202856;28;20049;-83
2022/02/18 15:58:48;;;;;;;1.77;0.50;;;16.60;63.00;;;;;;6210681;28;20047;-83